createdAt,value
2022-07-27T00:01:04.703Z,74787.88
2022-07-27T00:03:32.633Z,74779.66
2022-07-27T00:06:00.794Z,74761.16
2022-07-27T00:08:28.103Z,74763.22
2022-07-27T00:10:55.636Z,74761.16
2022-07-27T00:13:23.039Z,74791.97
2022-07-27T00:15:51.534Z,74775.53
2022-07-27T00:18:19.616Z,74755.00
2022-07-27T00:20:49.662Z,74750.88
2022-07-27T00:23:17.020Z,74755.00
2022-07-27T00:25:44.435Z,74763.22
2022-07-27T00:28:11.735Z,74763.22
2022-07-27T00:30:39.050Z,74746.78
2022-07-27T00:33:06.780Z,74734.44
2022-07-27T00:35:34.257Z,74730.34
2022-07-27T00:38:03.315Z,74742.66
2022-07-27T00:40:31.726Z,74742.66
2022-07-27T00:42:59.013Z,74744.72
2022-07-27T00:45:26.370Z,74752.94
2022-07-27T00:47:55.379Z,74759.09
2022-07-27T00:50:23.475Z,74750.88
2022-07-27T00:52:51.399Z,74744.72
2022-07-27T00:55:24.052Z,74748.81
2022-07-27T00:57:53.206Z,74759.09
2022-07-27T01:00:29.419Z,74763.22
2022-07-27T01:02:57.602Z,74755.00
2022-07-27T01:05:26.570Z,74750.88
2022-07-27T01:08:05.763Z,74738.56
2022-07-27T01:10:33.065Z,74755.00
2022-07-27T01:13:00.509Z,74757.03
2022-07-27T01:15:27.952Z,74750.88
2022-07-27T01:17:55.888Z,74750.88
2022-07-27T01:20:23.228Z,74783.75
2022-07-27T01:22:50.956Z,74769.38
2022-07-27T01:25:18.211Z,74767.31
2022-07-27T01:27:45.577Z,74769.38
2022-07-27T01:30:30.309Z,74769.38
2022-07-27T01:33:04.676Z,74763.22
2022-07-27T01:35:32.015Z,74763.22
2022-07-27T01:38:03.168Z,74779.66
2022-07-27T01:40:30.920Z,74783.75
2022-07-27T01:42:58.250Z,74779.66
2022-07-27T01:45:25.755Z,74804.31
2022-07-27T01:47:53.084Z,74794.03
2022-07-27T01:50:20.399Z,74806.34
2022-07-27T01:52:48.726Z,74812.53
2022-07-27T01:55:16.063Z,74812.53
2022-07-27T01:57:43.388Z,74808.41
2022-07-27T02:00:12.503Z,74812.53
2022-07-27T02:02:40.553Z,74808.41
2022-07-27T02:05:08.744Z,74808.41
2022-07-27T02:07:39.904Z,74800.19
2022-07-27T02:10:07.501Z,74812.53
2022-07-27T02:12:35.654Z,74812.53
2022-07-27T02:15:15.059Z,74812.53
2022-07-27T02:17:43.800Z,74812.53
2022-07-27T02:20:14.808Z,74812.53
2022-07-27T02:22:42.590Z,74820.75
2022-07-27T02:25:10.277Z,74814.56
2022-07-27T02:27:40.015Z,74820.75
2022-07-27T02:30:07.962Z,74820.75
2022-07-27T02:32:37.396Z,74826.91
2022-07-27T02:35:18.516Z,74826.91
2022-07-27T02:37:48.751Z,74828.94
2022-07-27T02:40:18.717Z,74828.94
2022-07-27T02:42:46.290Z,74837.16
2022-07-27T02:45:16.575Z,74845.38
2022-07-27T02:47:46.058Z,74837.16
2022-07-27T02:50:13.664Z,74831.00
2022-07-27T02:52:40.928Z,74831.00
2022-07-27T02:55:08.922Z,74820.75
2022-07-27T02:57:38.007Z,74822.78
2022-07-27T03:00:15.031Z,74820.75
2022-07-27T03:02:42.794Z,74818.69
2022-07-27T03:05:10.532Z,74816.63
2022-07-27T03:07:40.780Z,74808.41
2022-07-27T03:10:08.403Z,74810.47
2022-07-27T03:12:37.841Z,74804.31
2022-07-27T03:15:05.542Z,74804.31
2022-07-27T03:17:33.742Z,74806.34
2022-07-27T03:20:01.031Z,74804.31
2022-07-27T03:22:32.704Z,74798.13
2022-07-27T03:25:00.401Z,74800.19
2022-07-27T03:27:28.324Z,74779.66
2022-07-27T03:29:56.759Z,74769.38
2022-07-27T03:32:24.047Z,74767.31
2022-07-27T03:34:51.360Z,74779.66
2022-07-27T03:37:20.009Z,74798.13
2022-07-27T03:39:47.598Z,74775.53
2022-07-27T03:42:14.953Z,74783.75
2022-07-27T03:44:43.446Z,74800.19
2022-07-27T03:47:10.750Z,74812.53
2022-07-27T03:49:38.061Z,74806.34
2022-07-27T03:52:05.779Z,74804.31
2022-07-27T03:54:33.235Z,74802.25
2022-07-27T03:57:01.743Z,74798.13
2022-07-27T03:59:29.321Z,74787.88
2022-07-27T04:01:56.712Z,74783.75
2022-07-27T04:04:24.243Z,74775.53
2022-07-27T04:06:52.350Z,74769.38
2022-07-27T04:09:21.546Z,74761.16
2022-07-27T04:11:50.907Z,74738.56
2022-07-27T04:14:18.908Z,74734.44
2022-07-27T04:16:47.133Z,74730.34
2022-07-27T04:19:14.911Z,74701.56
2022-07-27T04:21:42.911Z,74713.91
2022-07-27T04:24:10.269Z,74705.69
2022-07-27T04:26:37.546Z,74701.56
2022-07-27T04:29:04.838Z,74691.28
2022-07-27T04:31:32.192Z,74681.03
2022-07-27T04:33:59.511Z,74670.75
2022-07-27T04:36:26.854Z,74654.31
2022-07-27T04:38:54.105Z,74633.78
2022-07-27T04:41:21.768Z,74635.81
2022-07-27T04:43:49.012Z,74631.72
2022-07-27T04:46:16.562Z,74642.00
2022-07-27T04:48:49.510Z,74627.59
2022-07-27T04:51:17.777Z,74611.16
2022-07-27T04:53:54.015Z,74623.50
2022-07-27T04:56:26.921Z,74623.50
2022-07-27T04:58:55.122Z,74619.38
2022-07-27T05:01:27.363Z,74615.28
2022-07-27T05:03:56.727Z,74598.84
2022-07-27T05:06:24.083Z,74582.41
2022-07-27T05:08:51.369Z,74580.34
2022-07-27T05:11:18.714Z,74557.75
2022-07-27T05:13:45.979Z,74565.97
2022-07-27T05:16:13.885Z,74553.66
2022-07-27T05:18:41.754Z,74533.09
2022-07-27T05:21:09.961Z,74533.09
2022-07-27T05:23:37.287Z,74512.56
2022-07-27T05:26:04.757Z,74500.22
2022-07-27T05:28:32.393Z,74492.00
2022-07-27T05:31:00.106Z,74494.06
2022-07-27T05:33:27.422Z,74496.13
2022-07-27T05:35:58.599Z,74483.78
2022-07-27T05:38:26.222Z,74481.75
2022-07-27T05:40:53.570Z,74471.47
2022-07-27T05:43:21.159Z,74465.31
2022-07-27T05:45:48.517Z,74461.19
2022-07-27T05:48:16.811Z,74452.97
2022-07-27T05:50:44.132Z,74434.50
2022-07-27T05:53:11.497Z,74418.06
2022-07-27T05:55:38.782Z,74401.63
2022-07-27T05:58:06.501Z,74399.56
2022-07-27T06:00:33.888Z,74385.19
2022-07-27T06:03:01.269Z,74383.13
2022-07-27T06:05:28.685Z,74360.53
2022-07-27T06:07:58.870Z,74352.31
2022-07-27T06:10:29.922Z,74372.84
2022-07-27T06:13:00.144Z,74362.59
2022-07-27T06:15:27.618Z,74356.44
2022-07-27T06:17:56.217Z,74344.09
2022-07-27T06:20:24.646Z,74340.00
2022-07-27T06:22:54.216Z,74340.00
2022-07-27T06:25:21.884Z,74321.50
2022-07-27T06:27:51.848Z,74315.34
2022-07-27T06:30:20.175Z,74292.75
2022-07-27T06:32:48.274Z,74270.16
2022-07-27T06:35:16.183Z,74249.59
2022-07-27T06:37:48.438Z,74241.38
2022-07-27T06:40:16.790Z,74229.06
2022-07-27T06:42:44.542Z,74220.84
2022-07-27T06:45:11.847Z,74196.19
2022-07-27T06:47:49.795Z,74196.19
2022-07-27T06:50:18.510Z,74208.50
2022-07-27T06:52:46.504Z,74200.28
2022-07-27T06:55:13.932Z,74200.28
2022-07-27T06:57:43.084Z,74196.19
2022-07-27T07:00:12.209Z,74192.09
2022-07-27T07:02:54.873Z,74163.31
2022-07-27T07:05:23.324Z,74126.34
2022-07-27T07:07:50.726Z,74128.41
2022-07-27T07:10:18.259Z,74118.13
2022-07-27T07:12:46.385Z,74101.69
2022-07-27T07:15:13.710Z,74103.75
2022-07-27T07:17:41.287Z,74097.59
2022-07-27T07:20:09.441Z,74087.31
2022-07-27T07:22:36.795Z,74068.81
2022-07-27T07:25:04.254Z,74060.59
2022-07-27T07:27:32.749Z,74052.41
2022-07-27T07:30:00.222Z,74044.19
2022-07-27T07:32:33.610Z,74031.84
2022-07-27T07:35:03.638Z,74035.97
2022-07-27T07:37:33.994Z,74044.19
2022-07-27T07:40:24.823Z,74064.72
2022-07-27T07:42:53.910Z,74023.63
2022-07-27T07:45:24.550Z,74011.31
2022-07-27T07:47:52.020Z,74009.25
2022-07-27T07:50:22.183Z,73988.72
2022-07-27T07:52:51.284Z,74035.97
2022-07-27T07:55:25.958Z,73999.00
2022-07-27T07:57:53.570Z,73974.34
2022-07-27T08:00:21.233Z,73929.16
2022-07-27T08:02:50.740Z,73929.16
2022-07-27T08:05:22.034Z,73904.50
2022-07-27T08:07:49.673Z,73879.84
2022-07-27T08:10:17.890Z,73881.91
2022-07-27T08:12:46.565Z,73871.63
2022-07-27T08:15:14.814Z,73871.63
2022-07-27T08:17:43.324Z,73838.78
2022-07-27T08:20:13.054Z,73820.28
2022-07-27T08:22:40.554Z,73789.47
2022-07-27T08:25:08.302Z,73795.63
2022-07-27T08:27:40.218Z,73779.19
2022-07-27T08:30:09.433Z,73752.50
2022-07-27T08:33:06.771Z,73736.06
2022-07-27T08:35:34.429Z,73736.06
2022-07-27T08:38:03.024Z,73711.41
2022-07-27T08:40:46.800Z,73688.81
2022-07-27T08:43:23.795Z,73670.34
2022-07-27T08:45:56.576Z,73664.19
2022-07-27T08:48:29.422Z,73703.22
2022-07-27T08:50:56.792Z,73779.19
2022-07-27T08:53:24.381Z,73736.06
2022-07-27T08:55:51.776Z,73756.59
2022-07-27T08:58:19.183Z,73744.28
2022-07-27T09:00:48.461Z,73768.94
2022-07-27T09:03:19.435Z,73766.88
2022-07-27T09:05:53.242Z,73715.53
2022-07-27T09:08:25.347Z,73715.53
2022-07-27T09:10:54.679Z,73744.28
2022-07-27T09:13:32.087Z,73719.63
2022-07-27T09:16:21.220Z,73664.19
2022-07-27T09:19:01.456Z,73629.25
2022-07-27T09:21:32.745Z,73629.25
2022-07-27T09:24:23.237Z,73596.41
2022-07-27T09:27:02.758Z,73553.28
2022-07-27T09:29:34.512Z,73543.00
2022-07-27T09:32:01.825Z,73547.09
2022-07-27T09:34:31.022Z,73485.50
2022-07-27T09:36:58.828Z,73386.91
2022-07-27T09:39:27.191Z,73440.31
2022-07-27T09:42:00.071Z,73506.03
2022-07-27T09:44:43.151Z,73559.44
2022-07-27T09:47:23.160Z,73444.41
2022-07-27T09:49:50.613Z,73276.00
2022-07-27T09:52:28.336Z,73074.75
2022-07-27T09:55:01.880Z,73025.47
2022-07-27T09:57:29.273Z,72820.13
2022-07-27T10:00:10.491Z,72713.34
2022-07-27T10:02:38.936Z,72725.66
2022-07-27T10:05:07.655Z,72651.75
2022-07-27T10:07:35.940Z,72452.56
2022-07-27T10:10:05.599Z,72493.66
2022-07-27T10:12:32.984Z,72618.88
2022-07-27T10:15:00.299Z,72411.50
2022-07-27T10:17:29.253Z,72356.09
2022-07-27T10:19:59.545Z,72300.66
2022-07-27T10:22:49.249Z,72169.25
2022-07-27T10:25:16.607Z,72171.31
2022-07-27T10:27:47.300Z,72282.16
2022-07-27T10:30:17.231Z,72503.91
2022-07-27T10:32:51.560Z,72298.59
2022-07-27T10:35:34.653Z,72074.81
2022-07-27T10:38:11.979Z,72002.97
2022-07-27T10:40:39.432Z,72007.06
2022-07-27T10:43:18.349Z,72068.66
2022-07-27T10:45:50.322Z,72009.13
2022-07-27T10:48:45.886Z,72323.22
2022-07-27T10:51:21.336Z,72372.50
2022-07-27T10:54:11.426Z,72154.88
2022-07-27T10:56:49.577Z,72007.06
2022-07-27T11:00:12.376Z,71968.06
2022-07-27T11:02:41.632Z,71832.56
2022-07-27T11:05:42.629Z,71974.22
2022-07-27T11:10:48.248Z,72134.34
2022-07-27T11:13:18.343Z,72156.94
2022-07-27T11:16:28.501Z,71836.69
2022-07-27T11:19:04.238Z,72060.44
2022-07-27T11:21:36.615Z,72146.66
2022-07-27T11:24:16.848Z,72097.41
2022-07-27T11:26:49.524Z,72052.22
2022-07-27T11:29:18.378Z,71970.13
2022-07-27T11:31:56.057Z,71875.69
2022-07-27T11:34:35.545Z,71803.84
2022-07-27T11:37:04.387Z,72060.44
2022-07-27T11:42:23.577Z,71729.94
2022-07-27T11:44:53.515Z,71961.91
2022-07-27T11:47:24.211Z,71830.53
2022-07-27T11:49:52.625Z,71723.78
2022-07-27T11:52:20.316Z,71649.88
2022-07-27T11:54:51.314Z,71699.13
2022-07-27T11:57:20.948Z,71768.94
2022-07-27T11:59:48.528Z,71805.88
2022-07-27T12:02:20.439Z,71998.84
2022-07-27T12:04:52.690Z,71851.03
2022-07-27T12:07:22.141Z,71978.31
2022-07-27T12:09:53.439Z,71986.53
2022-07-27T12:12:26.920Z,71916.75
2022-07-27T12:14:59.322Z,71789.47
2022-07-27T12:17:32.639Z,71838.72
2022-07-27T12:20:16.700Z,71912.63
2022-07-27T12:22:50.804Z,71851.03
2022-07-27T12:25:18.071Z,71846.94
2022-07-27T12:28:01.608Z,72005.00
2022-07-27T12:30:35.514Z,72117.94
2022-07-27T12:33:04.018Z,72019.38
2022-07-27T12:35:37.403Z,72062.50
2022-07-27T12:38:08.146Z,71867.47
2022-07-27T12:40:49.749Z,71865.41
2022-07-27T12:43:18.573Z,72175.41
2022-07-27T12:45:46.599Z,72343.75
2022-07-27T12:48:16.547Z,72561.41
2022-07-27T12:50:45.513Z,72709.25
2022-07-27T12:53:15.268Z,72939.22
2022-07-27T12:55:43.917Z,73068.59
2022-07-27T12:58:14.026Z,73058.31
2022-07-27T13:00:42.016Z,73122.00
2022-07-27T13:03:09.511Z,73140.47
2022-07-27T13:05:36.810Z,73200.03
2022-07-27T13:08:04.904Z,73095.28
2022-07-27T13:10:34.021Z,72961.81
2022-07-27T13:13:08.092Z,72750.31
2022-07-27T13:15:35.785Z,72438.22
2022-07-27T13:18:04.245Z,72306.81
2022-07-27T13:20:31.719Z,72292.44
2022-07-27T13:22:59.022Z,72662.00
2022-07-27T13:25:28.932Z,72705.13
2022-07-27T13:27:56.654Z,72577.81
2022-07-27T13:30:25.100Z,72639.44
2022-07-27T13:32:52.517Z,72816.00
2022-07-27T13:35:19.862Z,72955.66
2022-07-27T13:37:47.277Z,72733.88
2022-07-27T13:40:15.013Z,72438.22
2022-07-27T13:42:44.289Z,72557.28
2022-07-27T13:45:14.929Z,72360.19
2022-07-27T13:47:42.606Z,72134.34
2022-07-27T13:50:17.767Z,72265.75
2022-07-27T13:52:49.646Z,72093.28
2022-07-27T13:55:17.226Z,72027.59
2022-07-27T13:57:44.849Z,72099.44
2022-07-27T14:00:12.737Z,72056.34
2022-07-27T14:02:42.614Z,71978.31
2022-07-27T14:05:13.157Z,72146.66
2022-07-27T14:07:42.917Z,71970.13
2022-07-27T14:10:30.627Z,71953.69
2022-07-27T14:13:08.158Z,71945.47
2022-07-27T14:15:50.457Z,72304.75
2022-07-27T14:18:29.629Z,72015.28
2022-07-27T14:21:01.557Z,71900.31
2022-07-27T14:23:29.493Z,72187.72
2022-07-27T14:25:57.362Z,71984.47
2022-07-27T14:28:25.737Z,71920.84
2022-07-27T14:30:53.705Z,71859.25
2022-07-27T14:33:24.111Z,71968.06
2022-07-27T14:35:52.874Z,72148.72
2022-07-27T14:38:27.167Z,72237.00
2022-07-27T14:40:59.091Z,72117.94
2022-07-27T14:43:27.369Z,72002.97
2022-07-27T14:45:54.729Z,71998.84
2022-07-27T14:48:32.467Z,71953.69
2022-07-27T14:51:10.106Z,71966.00
2022-07-27T14:53:37.511Z,71933.16
2022-07-27T14:56:05.079Z,72035.81
2022-07-27T14:58:32.896Z,72033.75
2022-07-27T15:01:00.253Z,72019.38
2022-07-27T15:03:27.726Z,72097.41
2022-07-27T15:05:58.249Z,72019.38
2022-07-27T15:08:25.565Z,72023.50
2022-07-27T15:10:57.685Z,72044.03
2022-07-27T15:13:25.662Z,72027.59
2022-07-27T15:15:58.098Z,72243.16
2022-07-27T15:18:26.609Z,72146.66
2022-07-27T15:20:54.022Z,72158.97
2022-07-27T15:23:22.497Z,72195.94
2022-07-27T15:25:50.051Z,72485.44
2022-07-27T15:28:17.423Z,72479.28
2022-07-27T15:30:44.785Z,72370.44
2022-07-27T15:33:12.130Z,72290.38
2022-07-27T15:36:03.752Z,72532.66
2022-07-27T15:38:31.252Z,72682.53
2022-07-27T15:40:58.825Z,72676.38
2022-07-27T15:43:26.090Z,72791.38
2022-07-27T15:45:53.447Z,72873.50
2022-07-27T15:48:21.780Z,72955.66
2022-07-27T15:50:50.577Z,72976.19
2022-07-27T15:53:18.764Z,73103.50
2022-07-27T15:55:46.342Z,73173.31
2022-07-27T15:58:17.812Z,73193.88
2022-07-27T16:00:53.243Z,73257.53
2022-07-27T16:03:24.355Z,73204.13
2022-07-27T16:05:53.446Z,73222.63
2022-07-27T16:08:21.193Z,73193.88
2022-07-27T16:10:48.907Z,73197.97
2022-07-27T16:13:16.340Z,73220.56
2022-07-27T16:16:04.921Z,73230.84
2022-07-27T16:18:38.345Z,73276.00
2022-07-27T16:21:07.215Z,73317.09
2022-07-27T16:23:36.222Z,73403.34
2022-07-27T16:26:05.965Z,73428.00
2022-07-27T16:28:39.228Z,73481.38
2022-07-27T16:31:07.932Z,73510.13
2022-07-27T16:33:35.457Z,73514.25
2022-07-27T16:36:02.942Z,73553.28
2022-07-27T16:38:30.515Z,73569.69
2022-07-27T16:40:57.785Z,73586.13
2022-07-27T16:43:37.247Z,73592.28
2022-07-27T16:46:07.954Z,73629.25
2022-07-27T16:48:41.882Z,73670.34
2022-07-27T16:51:14.831Z,73676.50
2022-07-27T16:53:44.120Z,73690.88
2022-07-27T16:56:13.042Z,73695.00
2022-07-27T16:58:41.539Z,73725.81
2022-07-27T17:01:09.072Z,73740.19
2022-07-27T17:03:37.615Z,73764.81
2022-07-27T17:06:06.830Z,73775.09
2022-07-27T17:08:35.957Z,73789.47
2022-07-27T17:11:05.387Z,73807.97
2022-07-27T17:13:34.692Z,73822.34
2022-07-27T17:16:03.618Z,73840.81
2022-07-27T17:18:35.712Z,73853.16
2022-07-27T17:21:12.505Z,73877.78
2022-07-27T17:23:41.564Z,73888.06
2022-07-27T17:26:09.479Z,73904.50
2022-07-27T17:28:39.163Z,73912.72
2022-07-27T17:31:09.688Z,73925.03
2022-07-27T17:33:38.246Z,73953.78
2022-07-27T17:36:09.577Z,73957.91
2022-07-27T17:38:45.632Z,73968.19
2022-07-27T17:41:13.525Z,73978.44
2022-07-27T17:43:43.275Z,73994.88
2022-07-27T17:46:11.145Z,74007.22
2022-07-27T17:48:39.129Z,74019.53
2022-07-27T17:51:07.141Z,74027.75
2022-07-27T17:53:35.039Z,74035.97
2022-07-27T17:56:02.914Z,74052.41
2022-07-27T17:58:30.770Z,74056.50
2022-07-27T18:00:58.933Z,74077.03
2022-07-27T18:03:26.775Z,74085.25
2022-07-27T18:05:54.173Z,74097.59
2022-07-27T18:08:21.857Z,74105.81
2022-07-27T18:10:51.474Z,74118.13
2022-07-27T18:13:18.854Z,74109.91
2022-07-27T18:15:48.957Z,74122.25
2022-07-27T18:18:19.806Z,74130.44
2022-07-27T18:20:48.371Z,74138.66
2022-07-27T18:23:16.086Z,74144.84
2022-07-27T18:25:45.055Z,74157.16
2022-07-27T18:28:14.120Z,74155.09
2022-07-27T18:30:46.113Z,74167.44
2022-07-27T18:33:16.821Z,74173.59
2022-07-27T18:35:44.390Z,74179.75
2022-07-27T18:38:12.467Z,74202.34
2022-07-27T18:40:41.342Z,74210.56
2022-07-27T18:43:08.918Z,74208.50
2022-07-27T18:45:38.505Z,74212.63
2022-07-27T18:48:06.374Z,74224.94
2022-07-27T18:50:38.927Z,74224.94
2022-07-27T18:53:07.082Z,74233.16
2022-07-27T18:55:34.778Z,74241.38
2022-07-27T18:58:02.177Z,74241.38
2022-07-27T19:00:29.683Z,74261.94
2022-07-27T19:02:58.132Z,74270.16
2022-07-27T19:05:32.719Z,74270.16
2022-07-27T19:08:13.243Z,74276.31
2022-07-27T19:10:43.022Z,74286.56
2022-07-27T19:13:14.212Z,74296.84
2022-07-27T19:15:41.723Z,74296.84
2022-07-27T19:18:25.167Z,74298.91
2022-07-27T19:20:52.746Z,74303.00
2022-07-27T19:23:21.484Z,74307.13
2022-07-27T19:25:48.822Z,74319.44
2022-07-27T19:28:17.150Z,74315.34
2022-07-27T19:30:44.526Z,74319.44
2022-07-27T19:33:12.372Z,74331.78
2022-07-27T19:35:40.192Z,74340.00
2022-07-27T19:38:08.535Z,74344.09
2022-07-27T19:40:45.701Z,74348.22
2022-07-27T19:43:13.890Z,74356.44
2022-07-27T19:45:41.602Z,74364.63
2022-07-27T19:48:08.975Z,74360.53
2022-07-27T19:50:36.434Z,74368.75
2022-07-27T19:53:06.921Z,74372.84
2022-07-27T19:55:34.781Z,74379.03
2022-07-27T19:58:02.080Z,74379.03
2022-07-27T20:00:30.136Z,74379.03
2022-07-27T20:02:57.681Z,74383.13
2022-07-27T20:05:25.035Z,74387.25
2022-07-27T20:07:52.976Z,74395.47
2022-07-27T20:10:21.859Z,74399.56
2022-07-27T20:12:49.610Z,74401.63
2022-07-27T20:15:18.476Z,74403.66
2022-07-27T20:17:45.729Z,74405.72
2022-07-27T20:20:14.305Z,74413.94
2022-07-27T20:22:41.618Z,74418.06
2022-07-27T20:25:34.927Z,74426.28
2022-07-27T20:28:03.363Z,74430.38
2022-07-27T20:30:31.133Z,74442.72
2022-07-27T20:32:58.753Z,74440.66
2022-07-27T20:35:37.398Z,74459.16
2022-07-27T20:38:05.314Z,74467.34
2022-07-27T20:40:33.040Z,74463.25
2022-07-27T20:43:00.457Z,74457.09
2022-07-27T20:45:27.970Z,74467.34
2022-07-27T20:47:55.824Z,74473.53
2022-07-27T20:50:24.373Z,74467.34
2022-07-27T20:52:54.461Z,74467.34
2022-07-27T20:55:21.829Z,74475.56
2022-07-27T20:57:49.415Z,74483.78
2022-07-27T21:00:17.248Z,74492.00
2022-07-27T21:02:44.674Z,74492.00
2022-07-27T21:05:14.406Z,74496.13
2022-07-27T21:07:41.836Z,74492.00
2022-07-27T21:10:10.068Z,74492.00
2022-07-27T21:12:37.411Z,74500.22
2022-07-27T21:15:08.548Z,74504.34
2022-07-27T21:17:40.173Z,74512.56
2022-07-27T21:20:07.843Z,74516.66
2022-07-27T21:22:35.760Z,74529.00
2022-07-27T21:25:03.669Z,74529.00
2022-07-27T21:27:31.511Z,74537.22
2022-07-27T21:29:59.244Z,74539.25
2022-07-27T21:32:26.664Z,74539.25
2022-07-27T21:34:54.607Z,74553.66
2022-07-27T21:37:22.018Z,74557.75
2022-07-27T21:39:49.725Z,74561.88
2022-07-27T21:42:19.954Z,74570.09
2022-07-27T21:44:47.295Z,74574.19
2022-07-27T21:47:14.842Z,74582.41
2022-07-27T21:49:43.105Z,74580.34
2022-07-27T21:52:11.355Z,74584.47
2022-07-27T21:54:38.974Z,74594.75
2022-07-27T21:57:07.125Z,74594.75
2022-07-27T21:59:34.880Z,74602.94
2022-07-27T22:02:02.208Z,74602.94
2022-07-27T22:04:29.866Z,74607.06
2022-07-27T22:06:57.397Z,74609.13
2022-07-27T22:09:25.168Z,74611.16
2022-07-27T22:11:52.481Z,74617.34
2022-07-27T22:14:23.580Z,74615.28
2022-07-27T22:16:52.946Z,74623.50
2022-07-27T22:19:20.591Z,74639.94
2022-07-27T22:21:47.962Z,74642.00
2022-07-27T22:24:16.438Z,74646.09
2022-07-27T22:26:44.349Z,74652.25
2022-07-27T22:29:12.283Z,74650.22
2022-07-27T22:31:39.968Z,74650.22
2022-07-27T22:34:07.382Z,74652.25
2022-07-27T22:36:34.682Z,74654.31
2022-07-27T22:39:02.074Z,74656.38
2022-07-27T22:41:29.551Z,74658.44
2022-07-27T22:43:57.413Z,74660.47
2022-07-27T22:46:25.879Z,74672.81
2022-07-27T22:48:53.409Z,74672.81
2022-07-27T22:51:20.863Z,74672.81
2022-07-27T22:53:49.203Z,74668.69
2022-07-27T22:56:16.581Z,74672.81
2022-07-27T22:58:44.124Z,74672.81
2022-07-27T23:01:28.400Z,74689.25
2022-07-27T23:03:58.770Z,74691.28
2022-07-27T23:06:26.706Z,74689.25
2022-07-27T23:08:53.979Z,74705.69
2022-07-27T23:11:22.832Z,74701.56
2022-07-27T23:13:52.696Z,74707.72
2022-07-27T23:16:19.985Z,74713.91
2022-07-27T23:18:47.289Z,74705.69
2022-07-27T23:21:15.198Z,74711.84
2022-07-27T23:23:53.695Z,74718.00
2022-07-27T23:26:22.998Z,74707.72
2022-07-27T23:28:53.670Z,74709.78
2022-07-27T23:31:21.798Z,74709.78
2022-07-27T23:33:49.649Z,74722.13
2022-07-27T23:36:16.983Z,74730.34
2022-07-27T23:38:44.308Z,74713.91
2022-07-27T23:41:11.672Z,74713.91
2022-07-27T23:43:39.145Z,74722.13
2022-07-27T23:46:11.377Z,74734.44
2022-07-27T23:48:39.778Z,74734.44
2022-07-27T23:51:08.967Z,74734.44
2022-07-27T23:53:36.848Z,74738.56
2022-07-27T23:56:04.590Z,74738.56
2022-07-27T23:58:32.231Z,74742.66
